Time,TemperatureF,DewpointF,PressureIn,WindDirection,WindDirectionDegrees,WindSpeedMPH,WindSpeedGustMPH,Humidity,HourlyPrecipIn,Conditions,Clouds,dailyrainin,SoftwareType,DateUTC
2013-03-27 00:02:00,47.0,37.0,30.20,North,0,0.0,1.0,67,0.00,,,0.00,,2013-03-27 05:02:00,
2013-03-27 00:12:00,47.0,37.0,30.20,North,0,0.0,1.0,67,0.00,,,0.00,,2013-03-27 05:12:00,
2013-03-27 00:23:00,46.0,37.0,30.20,North,0,0.0,2.0,71,0.00,,,0.00,,2013-03-27 05:23:00,
2013-03-27 00:33:00,46.0,37.0,30.20,North,11,1.0,3.0,72,0.00,,,0.00,,2013-03-27 05:33:00,
2013-03-27 00:42:00,46.0,37.0,30.20,North,11,1.0,3.0,72,0.00,,,0.00,,2013-03-27 05:42:00,
2013-03-27 00:52:00,47.0,38.0,30.20,North,0,2.0,2.0,72,0.00,,,0.00,,2013-03-27 05:52:00,
2013-03-27 01:02:00,46.0,37.0,30.20,NNW,344,1.0,1.0,71,0.00,,,0.00,,2013-03-27 06:02:00,
2013-03-27 01:12:00,46.0,37.0,30.20,NNW,344,1.0,1.0,71,0.00,,,0.00,,2013-03-27 06:12:00,
2013-03-27 01:22:00,46.0,37.0,30.19,NNE,33,1.0,2.0,72,0.00,,,0.00,,2013-03-27 06:22:00,
2013-03-27 01:32:00,46.0,37.0,30.19,North,350,2.0,3.0,72,0.00,,,0.00,,2013-03-27 06:32:00,
2013-03-27 01:42:00,46.0,37.0,30.19,North,350,2.0,3.0,72,0.00,,,0.00,,2013-03-27 06:42:00,
2013-03-27 01:52:00,46.0,37.0,30.18,North,0,2.0,4.0,72,0.00,,,0.00,,2013-03-27 06:52:00,
2013-03-27 02:02:00,46.0,37.0,30.18,ENE,63,1.0,2.0,72,0.00,,,0.00,,2013-03-27 07:02:00,
2013-03-27 02:12:00,46.0,37.0,30.18,ENE,63,1.0,2.0,72,0.00,,,0.00,,2013-03-27 07:12:00,
2013-03-27 02:22:00,45.0,37.0,30.17,ENE,68,1.0,2.0,72,0.00,,,0.00,,2013-03-27 07:22:00,
2013-03-27 02:32:00,45.0,37.0,30.18,East,87,1.0,2.0,73,0.00,,,0.00,,2013-03-27 07:32:00,
2013-03-27 02:42:00,45.0,37.0,30.18,East,87,1.0,2.0,73,0.00,,,0.00,,2013-03-27 07:42:00,
2013-03-27 02:53:00,45.0,37.0,30.18,ENE,68,0.0,2.0,74,0.00,,,0.00,,2013-03-27 07:53:00,
2013-03-27 03:02:00,44.0,36.0,30.17,NNE,14,1.0,3.0,74,0.00,,,0.00,,2013-03-27 08:02:00,
2013-03-27 03:12:00,44.0,36.0,30.17,NNE,14,1.0,3.0,74,0.00,,,0.00,,2013-03-27 08:12:00,
2013-03-27 03:22:00,44.0,36.0,30.17,NNE,28,1.0,2.0,74,0.00,,,0.00,,2013-03-27 08:22:00,
2013-03-27 03:32:00,44.0,36.0,30.17,North,0,1.0,2.0,74,0.00,,,0.00,,2013-03-27 08:32:00,
2013-03-27 03:43:00,44.0,36.0,30.17,North,0,1.0,2.0,74,0.00,,,0.00,,2013-03-27 08:43:00,
2013-03-27 03:52:00,44.0,36.0,30.17,North,0,1.0,2.0,74,0.00,,,0.00,,2013-03-27 08:52:00,
2013-03-27 04:02:00,44.0,36.0,30.17,NW,322,2.0,3.0,74,0.00,,,0.00,,2013-03-27 09:02:00,
2013-03-27 04:12:00,44.0,36.0,30.17,NW,322,2.0,3.0,74,0.00,,,0.00,,2013-03-27 09:12:00,
2013-03-27 04:22:00,44.0,36.0,30.17,NNW,338,3.0,3.0,74,0.00,,,0.00,,2013-03-27 09:22:00,
2013-03-27 04:33:00,44.0,36.0,30.17,NNW,332,2.0,3.0,74,0.00,,,0.00,,2013-03-27 09:33:00,
2013-03-27 04:42:00,44.0,36.0,30.17,NNW,332,2.0,3.0,74,0.00,,,0.00,,2013-03-27 09:42:00,
2013-03-27 04:52:00,44.0,36.0,30.18,NW,315,2.0,4.0,74,0.00,,,0.00,,2013-03-27 09:52:00,
2013-03-27 05:02:00,45.0,37.0,30.18,NNW,347,1.0,5.0,73,0.00,,,0.00,,2013-03-27 10:02:00,
2013-03-27 05:12:00,45.0,37.0,30.18,NNW,347,1.0,5.0,73,0.00,,,0.00,,2013-03-27 10:12:00,
2013-03-27 05:23:00,44.0,36.0,30.18,NNE,32,2.0,3.0,73,0.00,,,0.00,,2013-03-27 10:23:00,
2013-03-27 05:32:00,44.0,36.0,30.19,North,0,2.0,2.0,72,0.00,,,0.00,,2013-03-27 10:32:00,
2013-03-27 05:42:00,44.0,36.0,30.19,North,0,2.0,2.0,72,0.00,,,0.00,,2013-03-27 10:42:00,
2013-03-27 05:53:00,44.0,35.0,30.19,NE,53,2.0,3.0,71,0.00,,,0.00,,2013-03-27 10:53:00,
2013-03-27 06:03:00,43.0,34.0,30.20,North,6,1.0,4.0,71,0.00,,,0.00,,2013-03-27 11:03:00,
2013-03-27 06:12:00,43.0,34.0,30.20,North,6,1.0,4.0,71,0.00,,,0.00,,2013-03-27 11:12:00,
2013-03-27 06:22:00,43.0,34.0,30.20,North,6,1.0,4.0,71,0.00,,,0.00,,2013-03-27 11:22:00,
2013-03-27 06:32:00,43.0,35.0,30.22,North,11,1.0,3.0,72,0.00,,,0.00,,2013-03-27 11:32:00,
2013-03-27 06:42:00,43.0,35.0,30.22,North,11,1.0,3.0,72,0.00,,,0.00,,2013-03-27 11:42:00,
2013-03-27 06:53:00,43.0,35.0,30.22,NE,35,1.0,3.0,72,0.00,,,0.00,,2013-03-27 11:53:00,
2013-03-27 07:02:00,43.0,35.0,30.22,ENE,75,2.0,4.0,72,0.00,,,0.00,,2013-03-27 12:02:00,
2013-03-27 07:12:00,43.0,35.0,30.22,ENE,75,2.0,4.0,72,0.00,,,0.00,,2013-03-27 12:12:00,
2013-03-27 07:23:00,43.0,35.0,30.22,ENE,75,2.0,4.0,72,0.00,,,0.00,,2013-03-27 12:23:00,
2013-03-27 07:32:00,45.0,36.0,30.23,NE,41,3.0,6.0,71,0.00,,,0.00,,2013-03-27 12:32:00,
2013-03-27 07:43:00,45.0,36.0,30.23,NE,41,3.0,6.0,71,0.00,,,0.00,,2013-03-27 12:43:00,
2013-03-27 07:52:00,46.0,37.0,30.23,East,90,1.0,3.0,70,0.00,,,0.00,,2013-03-27 12:52:00,
2013-03-27 08:02:00,47.0,37.0,30.24,North,354,3.0,5.0,67,0.00,,,0.00,,2013-03-27 13:02:00,
2013-03-27 08:12:00,47.0,37.0,30.24,North,354,3.0,5.0,67,0.00,,,0.00,,2013-03-27 13:12:00,
2013-03-27 08:22:00,49.0,37.0,30.24,NE,48,2.0,4.0,64,0.00,,,0.00,,2013-03-27 13:22:00,
2013-03-27 08:32:00,50.0,37.0,30.25,NE,43,2.0,7.0,60,0.00,,,0.00,,2013-03-27 13:32:00,
2013-03-27 08:42:00,50.0,37.0,30.25,NE,43,2.0,7.0,60,0.00,,,0.00,,2013-03-27 13:42:00,
2013-03-27 08:53:00,52.0,37.0,30.25,North,354,3.0,5.0,57,0.00,,,0.00,,2013-03-27 13:53:00,
2013-03-27 09:02:00,53.0,38.0,30.26,North,11,4.0,5.0,56,0.00,,,0.00,,2013-03-27 14:02:00,
2013-03-27 09:12:00,53.0,38.0,30.26,North,11,4.0,5.0,56,0.00,,,0.00,,2013-03-27 14:12:00,
2013-03-27 09:22:00,55.0,37.0,30.26,NNE,29,3.0,4.0,51,0.00,,,0.00,,2013-03-27 14:22:00,
2013-03-27 09:32:00,56.0,39.0,30.26,East,79,3.0,4.0,52,0.00,,,0.00,,2013-03-27 14:32:00,
2013-03-27 09:42:00,56.0,39.0,30.26,East,79,3.0,4.0,52,0.00,,,0.00,,2013-03-27 14:42:00,
2013-03-27 09:52:00,57.0,38.0,30.26,East,79,2.0,5.0,49,0.00,,,0.00,,2013-03-27 14:52:00,
2013-03-27 10:02:00,57.0,38.0,30.26,East,79,2.0,5.0,49,0.00,,,0.00,,2013-03-27 15:02:00,
2013-03-27 10:12:00,57.0,38.0,30.26,East,79,2.0,5.0,49,0.00,,,0.00,,2013-03-27 15:12:00,
2013-03-27 10:22:00,58.0,36.0,30.26,NNW,345,6.0,6.0,44,0.00,,,0.00,,2013-03-27 15:22:00,
2013-03-27 10:33:00,58.0,37.0,30.26,NW,320,3.0,6.0,46,0.00,,,0.00,,2013-03-27 15:33:00,
2013-03-27 10:43:00,58.0,37.0,30.26,NW,320,3.0,6.0,46,0.00,,,0.00,,2013-03-27 15:43:00,
2013-03-27 10:53:00,59.0,37.0,30.26,NW,320,4.0,6.0,43,0.00,,,0.00,,2013-03-27 15:53:00,
2013-03-27 11:03:00,61.0,38.0,30.25,NW,315,4.0,5.0,43,0.00,,,0.00,,2013-03-27 16:03:00,
2013-03-27 11:13:00,61.0,38.0,30.25,NW,315,4.0,5.0,43,0.00,,,0.00,,2013-03-27 16:13:00,
2013-03-27 11:22:00,60.0,36.0,30.25,WNW,301,6.0,8.0,40,0.00,,,0.00,,2013-03-27 16:22:00,
2013-03-27 11:32:00,63.0,37.0,30.25,NNW,346,4.0,5.0,38,0.00,,,0.00,,2013-03-27 16:32:00,
2013-03-27 11:42:00,63.0,37.0,30.25,NNW,346,4.0,5.0,38,0.00,,,0.00,,2013-03-27 16:42:00,
2013-03-27 11:52:00,62.0,35.0,30.24,NNW,327,5.0,7.0,37,0.00,,,0.00,,2013-03-27 16:52:00,
2013-03-27 12:03:00,63.0,36.0,30.24,NE,46,3.0,5.0,36,0.00,,,0.00,,2013-03-27 17:03:00,
2013-03-27 12:12:00,63.0,36.0,30.24,NE,46,3.0,5.0,36,0.00,,,0.00,,2013-03-27 17:12:00,
2013-03-27 12:22:00,64.0,37.0,30.22,WSW,258,2.0,4.0,37,0.00,,,0.00,,2013-03-27 17:22:00,
2013-03-27 12:32:00,64.0,37.0,30.22,NE,45,4.0,7.0,36,0.00,,,0.00,,2013-03-27 17:32:00,
2013-03-27 12:44:00,64.0,37.0,30.22,NE,45,4.0,7.0,36,0.00,,,0.00,,2013-03-27 17:44:00,
2013-03-27 12:52:00,64.0,35.0,30.21,North,349,4.0,5.0,34,0.00,,,0.00,,2013-03-27 17:52:00,
2013-03-27 13:02:00,64.0,35.0,30.21,North,349,4.0,5.0,34,0.00,,,0.00,,2013-03-27 18:02:00,
2013-03-27 13:12:00,64.0,35.0,30.21,North,349,4.0,5.0,34,0.00,,,0.00,,2013-03-27 18:12:00,
2013-03-27 13:23:00,66.0,38.0,30.20,SW,230,2.0,5.0,36,0.00,,,0.00,,2013-03-27 18:23:00,
2013-03-27 13:32:00,66.0,37.0,30.20,NW,321,6.0,7.0,34,0.00,,,0.00,,2013-03-27 18:32:00,
2013-03-27 13:42:00,66.0,37.0,30.20,NW,321,6.0,7.0,34,0.00,,,0.00,,2013-03-27 18:42:00,
2013-03-27 13:53:00,67.0,39.0,30.19,NW,315,3.0,6.0,36,0.00,,,0.00,,2013-03-27 18:53:00,
2013-03-27 14:02:00,67.0,40.0,30.19,WNW,287,5.0,8.0,37,0.00,,,0.00,,2013-03-27 19:02:00,
2013-03-27 14:12:00,67.0,40.0,30.19,WNW,287,5.0,8.0,37,0.00,,,0.00,,2013-03-27 19:12:00,
2013-03-27 14:22:00,65.0,40.0,30.19,NNW,333,5.0,10.0,40,0.00,,,0.00,,2013-03-27 19:22:00,
2013-03-27 14:32:00,65.0,39.0,30.19,NW,318,5.0,8.0,39,0.00,,,0.00,,2013-03-27 19:32:00,
2013-03-27 14:42:00,65.0,39.0,30.19,NW,318,5.0,8.0,39,0.00,,,0.00,,2013-03-27 19:42:00,
2013-03-27 14:52:00,65.0,40.0,30.17,WNW,302,10.0,11.0,40,0.00,,,0.00,,2013-03-27 19:52:00,
2013-03-27 15:02:00,65.0,41.0,30.17,WNW,288,7.0,9.0,42,0.00,,,0.00,,2013-03-27 20:02:00,
2013-03-27 15:12:00,65.0,41.0,30.17,WNW,288,7.0,9.0,42,0.00,,,0.00,,2013-03-27 20:12:00,
2013-03-27 15:22:00,64.0,41.0,30.17,WNW,293,8.0,12.0,43,0.00,,,0.00,,2013-03-27 20:22:00,
2013-03-27 15:32:00,64.0,42.0,30.16,West,271,6.0,12.0,44,0.00,,,0.00,,2013-03-27 20:32:00,
2013-03-27 15:42:00,64.0,42.0,30.16,West,271,6.0,12.0,44,0.00,,,0.00,,2013-03-27 20:42:00,
2013-03-27 15:52:00,65.0,42.0,30.16,NNW,331,7.0,10.0,43,0.00,,,0.00,,2013-03-27 20:52:00,
2013-03-27 16:02:00,64.0,42.0,30.16,WNW,297,6.0,11.0,45,0.00,,,0.00,,2013-03-27 21:02:00,
2013-03-27 16:12:00,64.0,42.0,30.16,WNW,297,6.0,11.0,45,0.00,,,0.00,,2013-03-27 21:12:00,
2013-03-27 16:22:00,66.0,43.0,30.16,WNW,299,7.0,13.0,44,0.00,,,0.00,,2013-03-27 21:22:00,
2013-03-27 16:32:00,67.0,44.0,30.16,West,279,8.0,13.0,43,0.00,,,0.00,,2013-03-27 21:32:00,
2013-03-27 16:43:00,67.0,44.0,30.16,West,279,8.0,13.0,43,0.00,,,0.00,,2013-03-27 21:43:00,
2013-03-27 16:52:00,68.0,45.0,30.16,WNW,302,8.0,11.0,43,0.00,,,0.00,,2013-03-27 21:52:00,
2013-03-27 17:03:00,68.0,45.0,30.16,WNW,296,5.0,8.0,44,0.00,,,0.00,,2013-03-27 22:03:00,
2013-03-27 17:12:00,68.0,45.0,30.16,WNW,296,5.0,8.0,44,0.00,,,0.00,,2013-03-27 22:12:00,
2013-03-27 17:23:00,68.0,45.0,30.17,NW,304,7.0,9.0,43,0.00,,,0.00,,2013-03-27 22:23:00,
2013-03-27 17:33:00,67.0,45.0,30.17,WNW,296,6.0,7.0,45,0.00,,,0.00,,2013-03-27 22:33:00,
2013-03-27 17:42:00,67.0,45.0,30.17,WNW,296,6.0,7.0,45,0.00,,,0.00,,2013-03-27 22:42:00,
2013-03-27 17:53:00,66.0,45.0,30.17,NW,321,7.0,9.0,46,0.00,,,0.00,,2013-03-27 22:53:00,
2013-03-27 18:02:00,65.0,44.0,30.17,West,281,7.0,9.0,47,0.00,,,0.00,,2013-03-27 23:02:00,
2013-03-27 18:12:00,65.0,44.0,30.17,West,281,7.0,9.0,47,0.00,,,0.00,,2013-03-27 23:12:00,
2013-03-27 18:22:00,64.0,45.0,30.17,NW,306,5.0,7.0,50,0.00,,,0.00,,2013-03-27 23:22:00,
2013-03-27 18:32:00,63.0,45.0,30.18,WNW,301,4.0,8.0,51,0.00,,,0.00,,2013-03-27 23:32:00,
2013-03-27 18:42:00,63.0,45.0,30.18,WNW,301,4.0,8.0,51,0.00,,,0.00,,2013-03-27 23:42:00,
2013-03-27 18:52:00,60.0,44.0,30.18,NNW,327,6.0,8.0,56,0.00,,,0.00,,2013-03-27 23:52:00,
2013-03-27 19:02:00,59.0,44.0,30.18,NW,315,3.0,7.0,58,0.00,,,0.00,,2013-03-28 00:02:00,
2013-03-27 19:12:00,59.0,44.0,30.18,NW,315,3.0,7.0,58,0.00,,,0.00,,2013-03-28 00:12:00,
2013-03-27 19:22:00,57.0,44.0,30.18,NW,323,4.0,5.0,62,0.00,,,0.00,,2013-03-28 00:22:00,
2013-03-27 19:33:00,57.0,45.0,30.18,NNW,329,4.0,6.0,63,0.00,,,0.00,,2013-03-28 00:33:00,
2013-03-27 19:43:00,57.0,45.0,30.18,NNW,329,4.0,6.0,63,0.00,,,0.00,,2013-03-28 00:43:00,
2013-03-27 19:52:00,56.0,44.0,30.19,North,353,3.0,4.0,65,0.00,,,0.00,,2013-03-28 00:52:00,
2013-03-27 20:02:00,55.0,44.0,30.19,NW,315,2.0,4.0,66,0.00,,,0.00,,2013-03-28 01:02:00,
2013-03-27 20:12:00,55.0,44.0,30.19,NW,315,2.0,4.0,66,0.00,,,0.00,,2013-03-28 01:12:00,
2013-03-27 20:22:00,55.0,44.0,30.18,NW,307,2.0,4.0,67,0.00,,,0.00,,2013-03-28 01:22:00,
2013-03-27 20:32:00,54.0,44.0,30.19,NNW,327,2.0,3.0,69,0.00,,,0.00,,2013-03-28 01:32:00,
2013-03-27 20:42:00,54.0,44.0,30.19,NNW,327,2.0,3.0,69,0.00,,,0.00,,2013-03-28 01:42:00,
2013-03-27 20:53:00,54.0,44.0,30.20,NW,326,2.0,4.0,70,0.00,,,0.00,,2013-03-28 01:53:00,
2013-03-27 21:02:00,54.0,45.0,30.20,WNW,303,1.0,2.0,71,0.00,,,0.00,,2013-03-28 02:02:00,
2013-03-27 21:12:00,54.0,45.0,30.20,WNW,303,1.0,2.0,71,0.00,,,0.00,,2013-03-28 02:12:00,
2013-03-27 21:22:00,53.0,44.0,30.20,North,352,1.0,3.0,72,0.00,,,0.00,,2013-03-28 02:22:00,
2013-03-27 21:32:00,53.0,44.0,30.20,NNW,338,1.0,2.0,72,0.00,,,0.00,,2013-03-28 02:32:00,
2013-03-27 21:42:00,53.0,44.0,30.20,NNW,338,1.0,2.0,72,0.00,,,0.00,,2013-03-28 02:42:00,
2013-03-27 21:52:00,53.0,44.0,30.20,NNW,338,1.0,2.0,72,0.00,,,0.00,,2013-03-28 02:52:00,
2013-03-27 22:02:00,51.0,42.0,30.22,NNE,23,0.0,0.0,72,0.00,,,0.00,,2013-03-28 03:02:00,
2013-03-27 22:12:00,51.0,42.0,30.22,NNE,23,0.0,0.0,72,0.00,,,0.00,,2013-03-28 03:12:00,
2013-03-27 22:22:00,50.0,42.0,30.21,North,359,2.0,3.0,75,0.00,,,0.00,,2013-03-28 03:22:00,
2013-03-27 22:33:00,51.0,43.0,30.21,North,0,1.0,2.0,74,0.00,,,0.00,,2013-03-28 03:33:00,
2013-03-27 22:43:00,51.0,43.0,30.21,North,0,1.0,2.0,74,0.00,,,0.00,,2013-03-28 03:43:00,
2013-03-27 22:53:00,51.0,43.0,30.22,North,0,1.0,1.0,73,0.00,,,0.00,,2013-03-28 03:53:00,
2013-03-27 23:02:00,50.0,42.0,30.22,North,358,1.0,2.0,74,0.00,,,0.00,,2013-03-28 04:02:00,
2013-03-27 23:12:00,50.0,42.0,30.22,North,358,1.0,2.0,74,0.00,,,0.00,,2013-03-28 04:12:00,
2013-03-27 23:23:00,50.0,42.0,30.21,NNE,32,1.0,2.0,73,0.00,,,0.00,,2013-03-28 04:23:00,
2013-03-27 23:32:00,50.0,41.0,30.21,NNW,345,1.0,4.0,72,0.00,,,0.00,,2013-03-28 04:32:00,
2013-03-27 23:42:00,50.0,41.0,30.21,NNW,345,1.0,4.0,72,0.00,,,0.00,,2013-03-28 04:42:00,
2013-03-27 23:52:00,50.0,41.0,30.21,NNW,343,1.0,2.0,72,0.00,,,0.00,,2013-03-28 04:52:00,